• Join FlightAware (Why Join?)
  • Login
  • US Flag 
Gobble Gobble! 
04:17PM EST


 

Airport Tracker/Info


-or-


 

Live Flight TrackerFlight Track Log ✈ UAL252 ✈ 05-May-2013 ✈ KPDX - KSFO

Flight Track Log - Related Links

Times and Time Zones

All times are in EDT time to prevent confusion due to time zone crossing. See the UAL252 flight status page for this flight to view local times or setup timezone preferences in your user account.

Time Position Orientation Groundspeed Altitude Reporting Facility
EDT Latitude Longitude Course Direction KTS MPH feet Rate Location/Type
09:36AM 45.5844 -122.5708 196° South 161 185 700  Level Seattle Center
09:37AM 45.5686 -122.4711 103° East 221 254 4,000 2,760 Climbing Seattle Center
09:38AM 45.5211 -122.4147 140° Southeast 253 291 7,300 3,240 Climbing Seattle Center
09:39AM 45.1343 -122.7830 193° South  Level FlightAware Approximate
09:39AM 45.4661 -122.5014 228° Southwest 304 350 10,600  Level Seattle Center
09:40AM 45.0215 -122.8309 199° South  Level FlightAware Approximate
09:40AM 45.4306 -122.6367 250° West 357 411 12,900  Level Seattle Center
09:41AM 44.9095 -122.8829 196° South  Level FlightAware Approximate
09:41AM 45.3428 -122.7158 212° Southwest 378 435 15,300  Level Seattle Center
09:42AM 45.2367 -122.7569 195° South 387 445 17,600 1,980 Climbing Seattle Center
09:43AM 45.1225 -122.8050 197° South 412 474 19,300 2,040 Climbing Seattle Center
09:44AM 44.9994 -122.8575 197° South 446 513 21,800 2,040 Climbing Seattle Center
09:45AM 44.8758 -122.9103 197° South 458 527 23,500 1,680 Climbing Seattle Center
09:46AM 44.7483 -122.9625 196° South 466 536 25,300 1,740 Climbing Seattle Center
09:47AM 44.6206 -123.0419 204° Southwest 495 570 27,100 1,500 Climbing Seattle Center
09:48AM 44.4933 -123.1444 210° Southwest 519 597 28,400 1,320 Climbing Seattle Center
09:49AM 44.3614 -123.2464 209° Southwest 532 612 29,800 1,560 Climbing Seattle Center
09:50AM 44.2272 -123.3486 209° Southwest 545 627 31,600 1,560 Climbing Seattle Center
09:51AM 44.0947 -123.4533 210° Southwest 547 629 33,000 1,620 Climbing Seattle Center
09:52AM 43.9517 -123.5203 199° South 521 600 34,900 1,320 Climbing Seattle Center
09:53AM 43.8142 -123.5267 182° South 497 572 35,700 960 Climbing Seattle Center
09:54AM 43.6803 -123.5119 175° South 484 557 36,900 600 Climbing Seattle Center
09:55AM 43.5444 -123.5058 178° South 489 563 37,000  Climbing Seattle Center
09:56AM 43.4100 -123.5006 178° South 484 557 37,000  Level Seattle Center
09:57AM 43.2756 -123.4925 178° South 485 558 37,000  Level Seattle Center
09:58AM 43.1419 -123.4853 178° South 481 554 37,000  Level Seattle Center
09:59AM 43.0119 -123.4794 178° South 469 540 37,000  Level Seattle Center
10:00AM 42.8828 -123.4711 177° South 465 535 37,000  Level Seattle Center
10:01AM 42.7531 -123.4633 177° South 467 537 37,000  Level Seattle Center
10:02AM 42.6294 -123.4572 178° South 466 536 37,000  Level Seattle Center
10:03AM 42.4997 -123.4511 178° South 468 539 37,000  Level Seattle Center
10:04AM 42.3689 -123.4433 177° South 470 541 37,000  Level Seattle Center
10:05AM 42.2350 -123.4364 178° South 479 551 37,000  Level Seattle Center
10:06AM 42.1006 -123.4292 178° South 483 556 37,000  Level Seattle Center
10:07AM 41.9419 -123.4208 178° South 479 551 37,000  Level Seattle Center
10:08AM 41.8103 -123.4142 178° South 476 548 37,000  Level Seattle Center
10:09AM 41.6789 -123.4081 178° South 475 547 37,000  Level Seattle Center
10:10AM 41.5472 -123.3975 177° South 474 545 37,000  Level Seattle Center
10:11AM 41.4186 -123.3806 174° South 469 540 37,000  Level Seattle Center
10:12AM 41.2936 -123.3619 174° South 464 534 37,000  Level Seattle Center
10:13AM 41.1650 -123.3406 173° South 463 533 37,000  Level Seattle Center
10:14AM 41.0353 -123.3189 173° South 467 537 37,000  Level Seattle Center
10:15AM 40.9058 -123.2983 173° South 468 539 37,000  Level Seattle Center
10:16AM 40.7756 -123.2772 173° South 470 541 37,000  Level Oakland Center
10:17AM 40.6453 -123.2581 174° South 470 541 37,000  Level Oakland Center
10:18AM 40.5194 -123.2386 173° South 463 533 37,000  Level Oakland Center
10:19AM 40.3939 -123.2183 173° South 458 527 37,000  Level Oakland Center
10:20AM 40.2683 -123.1972 173° South 457 526 37,000  Level Oakland Center
10:21AM 40.1428 -123.1778 173° South 456 525 37,000  Level Oakland Center
10:22AM 40.0153 -123.1592 174° South 461 531 37,000  Level Oakland Center
10:23AM 39.8903 -123.1414 174° South 457 526 37,000 -600 Level Oakland Center
10:24AM 39.7653 -123.1214 173° South 456 525 35,900 -1,740 Descending Oakland Center
10:25AM 39.6369 -123.1003 173° South 464 534 33,500 -2,580 Descending Oakland Center
10:26AM 39.5144 -123.0808 173° South 449 517 30,800 -2,580 Descending Oakland Center
10:27AM 39.3778 -123.0583 173° South 443 510 28,400 -1,920 Descending Oakland Center
10:28AM 39.2614 -123.0397 173° South 426 490 27,000 -720 Descending Oakland Center
10:29AM 39.1442 -123.0228 174° South 423 487 27,000  Level Oakland Center
10:30AM 39.0317 -123.0044 173° South 412 474 27,000 -420 Level Oakland Center
10:31AM 38.9158 -122.9900 174° South 417 480 26,200 -1,680 Descending Oakland Center
10:32AM 38.8022 -122.9708 173° South 414 476 23,700 -3,000 Descending Oakland Center
10:33AM 38.6894 -122.9544 174° South 412 474 20,100 -3,360 Descending Oakland Center
10:34AM 38.5747 -122.9389 174° South 411 473 17,000 -2,760 Descending Oakland Center
10:35AM 38.4642 -122.9231 174° South 399 459 14,600 -2,460 Descending Oakland Center
10:36AM 38.3600 -122.9083 174° South 379 436 12,000 -1,860 Descending Oakland Center
10:37AM 38.2611 -122.8942 174° South 361 415 10,900 -1,080 Descending Oakland Center
10:38AM 38.1647 -122.8806 174° South 310 357 9,900 -960 Descending Oakland Center
10:40AM 38.0872 -122.8703 174° South 290 334 9,000 -480 Descending Oakland Center
10:41AM 38.0139 -122.8403 162° South 283 326 9,000  Level Oakland Center
10:42AM 37.9419 -122.8100 162° South 279 321 9,000 -360 Level Oakland Center
10:43AM 37.8722 -122.7806 162° South 271 312 8,300 -840 Descending Oakland Center
10:44AM 37.8111 -122.7378 151° Southeast 264 304 7,300 -840 Descending Oakland Center
10:45AM 37.8222 -122.6539 80° East 250 288 6,600 -840 Descending Oakland Center
10:45AM 37.8333 -122.6167 69° East 241 277 6,200 -720 Descending Northern Cal TRACON
10:46AM 37.8500 -122.5333 76° East 232 267 5,700 -900 Descending Northern Cal TRACON
10:47AM 37.8333 -122.4667 108° East 217 250 4,600 -1,320 Descending Northern Cal TRACON
10:48AM 37.8000 -122.4000 122° Southeast 214 246 3,300 -1,200 Descending Northern Cal TRACON
10:49AM 37.7803 -122.3522 118° Southeast 208 239 2,400 -720 Descending Oakland Center
10:50AM 37.7361 -122.3164 147° Southeast 201 231 2,000 -540 Descending Oakland Center
10:51AM 37.6825 -122.3333 194° South 200 230 1,400 -720 Descending Oakland Center
10:52AM 37.6406 -122.3600 207° Southwest 182 209 600 -840 Descending Oakland Center